Time;durP1;ratioP1;P1;durP2;ratioP2;P2;SDS_P1;SDS_P2;PMS_P1;PMS_P2;Temp;Humidity;BMP_temperature;BMP_pressure;BME280_temperature;BME280_humidity;BME280_pressure;Samples;Min_cycle;Max_cycle;Signal;HPM_P1;HPM_P2
2022/09/20 00:01:27;;;;;;;11.82;1.80;;;;;;;;;;5035328;28;20040;-71
2022/09/20 00:03:55;;;;;;;7.22;1.17;;;;;;;;;;5042164;28;20136;-70
2022/09/20 00:06:23;;;;;;;7.78;1.75;;;;;;;;;;5033928;28;20041;-70
2022/09/20 00:08:49;;;;;;;7.65;1.38;;;;;;;;;;5037751;28;20068;-70
2022/09/20 00:11:18;;;;;;;12.35;1.63;;;;;;;;;;5036530;28;20506;-70
2022/09/20 00:13:46;;;;;;;9.90;1.35;;;;;;;;;;5037970;28;20489;-70
2022/09/20 00:16:14;;;;;;;9.63;1.50;;;;;;;;;;5042982;28;20089;-70
2022/09/20 00:18:40;;;;;;;8.93;1.45;;;;;;;;;;5040709;28;20061;-70
2022/09/20 00:21:06;;;;;;;9.80;2.45;;;;;;;;;;5045770;28;20056;-70
2022/09/20 00:23:33;;;;;;;8.40;1.75;;;;;;;;;;5042318;28;20049;-70
2022/09/20 00:26:00;;;;;;;11.20;1.85;;;;;;;;;;5054616;28;20411;-68
2022/09/20 00:28:27;;;;;;;10.75;1.40;;;;;;;;;;5041903;28;20741;-70
2022/09/20 00:30:54;;;;;;;14.75;2.42;;;;;;;;;;5043289;28;20079;-70
2022/09/20 00:33:21;;;;;;;12.50;1.65;;;;;;;;;;5034764;28;20453;-70
2022/09/20 00:35:47;;;;;;;11.43;1.73;;;;;;;;;;5041384;28;20053;-70
2022/09/20 00:38:14;;;;;;;13.20;2.13;;;;;;;;;;5032050;28;21032;-70
2022/09/20 00:40:41;;;;;;;6.43;1.48;;;;;;;;;;5031111;28;20048;-70
2022/09/20 00:43:10;;;;;;;10.00;1.58;;;;;;;;;;5037266;28;20151;-70
2022/09/20 00:45:36;;;;;;;13.80;2.70;;;;;;;;;;5047106;28;20056;-71
2022/09/20 00:48:04;;;;;;;13.52;2.25;;;;;;;;;;5047990;28;20036;-70
2022/09/20 00:50:40;;;;;;;9.98;1.60;;;;;;;;;;5050709;28;20404;-71
2022/09/20 00:53:11;;;;;;;10.48;2.28;;;;;;;;;;5034104;28;20051;-70
2022/09/20 00:55:40;;;;;;;8.57;1.58;;;;;;;;;;5066947;28;20056;-70
2022/09/20 00:58:06;;;;;;;11.20;1.42;;;;;;;;;;5035884;28;20053;-70
2022/09/20 01:00:32;;;;;;;6.97;1.60;;;;;;;;;;5036051;28;20053;-70
2022/09/20 01:03:01;;;;;;;10.75;1.42;;;;;;;;;;5036654;28;20152;-70
2022/09/20 01:05:27;;;;;;;8.45;1.00;;;;;;;;;;5025918;28;20056;-70
2022/09/20 01:07:54;;;;;;;10.18;1.55;;;;;;;;;;5031290;28;20071;-70
2022/09/20 01:10:20;;;;;;;10.63;1.30;;;;;;;;;;5032739;28;20068;-70
2022/09/20 01:12:47;;;;;;;7.07;1.58;;;;;;;;;;5033602;28;20045;-70
2022/09/20 01:15:14;;;;;;;12.15;1.65;;;;;;;;;;5029614;28;20044;-70
2022/09/20 01:17:44;;;;;;;11.13;1.83;;;;;;;;;;5031210;28;20516;-70
2022/09/20 01:20:18;;;;;;;8.10;1.17;;;;;;;;;;5030793;28;20033;-70
2022/09/20 01:23:03;;;;;;;7.70;1.25;;;;;;;;;;5030798;28;20061;-70
2022/09/20 01:25:35;;;;;;;10.20;1.73;;;;;;;;;;5036692;28;20049;-70
2022/09/20 01:28:01;;;;;;;13.23;2.22;;;;;;;;;;5037929;28;20127;-70
2022/09/20 01:30:34;;;;;;;14.30;2.03;;;;;;;;;;5039930;28;20485;-70
2022/09/20 01:33:07;;;;;;;7.38;1.58;;;;;;;;;;5037825;28;20060;-70
2022/09/20 01:35:34;;;;;;;12.18;1.63;;;;;;;;;;5038706;28;20061;-71
2022/09/20 01:38:01;;;;;;;6.70;1.33;;;;;;;;;;5043719;28;20037;-71
2022/09/20 01:40:47;;;;;;;9.55;1.70;;;;;;;;;;5041072;28;20106;-71
2022/09/20 01:43:18;;;;;;;10.50;2.10;;;;;;;;;;5043318;28;20084;-71
2022/09/20 01:45:46;;;;;;;9.00;1.77;;;;;;;;;;5044580;28;20093;-71
2022/09/20 01:48:18;;;;;;;14.23;1.67;;;;;;;;;;5044432;28;20473;-71
2022/09/20 01:50:47;;;;;;;4.60;1.15;;;;;;;;;;5036128;28;20550;-71
2022/09/20 01:53:14;;;;;;;8.00;1.40;;;;;;;;;;5044176;28;20082;-71
2022/09/20 01:55:50;;;;;;;8.30;1.40;;;;;;;;;;5045489;28;20048;-71
2022/09/20 01:58:27;;;;;;;5.53;1.02;;;;;;;;;;5047912;28;20044;-71
2022/09/20 02:00:53;;;;;;;4.22;0.90;;;;;;;;;;5043332;28;20085;-71
2022/09/20 02:03:26;;;;;;;6.00;1.35;;;;;;;;;;5037962;28;20140;-71
2022/09/20 02:06:00;;;;;;;14.10;1.80;;;;;;;;;;5041040;28;20185;-71
2022/09/20 02:08:26;;;;;;;;;;;;;;;;;;5037677;28;20050;-71
2022/09/20 02:11:02;;;;;;;10.65;1.15;;;;;;;;;;5035463;28;19946;-71
2022/09/20 02:13:32;;;;;;;10.13;1.45;;;;;;;;;;5036017;28;20040;-71
2022/09/20 02:16:05;;;;;;;8.73;1.13;;;;;;;;;;5042661;28;20049;-71
2022/09/20 02:18:37;;;;;;;7.88;1.65;;;;;;;;;;5042817;28;20233;-71
2022/09/20 02:21:10;;;;;;;7.88;1.23;;;;;;;;;;5044627;28;20147;-71
2022/09/20 02:23:42;;;;;;;5.97;1.52;;;;;;;;;;5038563;28;20047;-71
2022/09/20 02:26:14;;;;;;;4.85;0.90;;;;;;;;;;5038199;28;20103;-71
2022/09/20 02:28:51;;;;;;;10.27;1.30;;;;;;;;;;5053260;28;20044;-71
2022/09/20 02:31:34;;;;;;;6.20;0.93;;;;;;;;;;5042142;28;20060;-72
2022/09/20 02:34:20;;;;;;;6.70;1.15;;;;;;;;;;5044631;28;20066;-71
2022/09/20 02:36:55;;;;;;;7.47;1.30;;;;;;;;;;5041055;28;21914;-71
2022/09/20 02:39:22;;;;;;;7.38;1.30;;;;;;;;;;5043909;28;20053;-71
2022/09/20 02:41:55;;;;;;;10.75;2.42;;;;;;;;;;5045173;28;22088;-71
2022/09/20 02:44:28;;;;;;;8.30;1.40;;;;;;;;;;5051582;28;20045;-71
2022/09/20 02:47:04;;;;;;;9.65;1.63;;;;;;;;;;5031627;28;20049;-71
2022/09/20 02:49:40;;;;;;;17.17;2.53;;;;;;;;;;5079770;28;20471;-71
2022/09/20 02:52:20;;;;;;;8.93;1.60;;;;;;;;;;5042184;28;20362;-71
2022/09/20 02:54:53;;;;;;;10.20;1.58;;;;;;;;;;5033940;28;20090;-71
2022/09/20 02:57:26;;;;;;;10.48;1.70;;;;;;;;;;5031909;28;20057;-71
2022/09/20 02:59:56;;;;;;;6.43;1.38;;;;;;;;;;5035485;28;20500;-71
2022/09/20 03:02:25;;;;;;;6.68;1.30;;;;;;;;;;5043847;28;20043;-71
2022/09/20 03:04:51;;;;;;;6.30;1.25;;;;;;;;;;5038148;28;20435;-71
2022/09/20 03:07:28;;;;;;;10.85;1.60;;;;;;;;;;5038291;28;20036;-71
2022/09/20 03:10:00;;;;;;;7.30;1.48;;;;;;;;;;5047812;28;20512;-71
2022/09/20 03:12:42;;;;;;;6.60;1.65;;;;;;;;;;5048570;28;20184;-71
2022/09/20 03:15:15;;;;;;;9.35;1.27;;;;;;;;;;5050554;28;20049;-71
2022/09/20 03:17:59;;;;;;;7.03;1.83;;;;;;;;;;5046233;28;20033;-71
2022/09/20 03:20:32;;;;;;;10.40;1.10;;;;;;;;;;5049371;28;20059;-71
2022/09/20 03:23:10;;;;;;;7.13;1.10;;;;;;;;;;5048763;28;20056;-71
2022/09/20 03:25:46;;;;;;;8.93;1.30;;;;;;;;;;5054641;28;20048;-71
2022/09/20 03:28:21;;;;;;;9.25;1.52;;;;;;;;;;5053758;28;20071;-71
2022/09/20 03:31:00;;;;;;;4.28;1.10;;;;;;;;;;5055046;28;20041;-71
2022/09/20 03:33:43;;;;;;;8.65;1.23;;;;;;;;;;5046960;28;20059;-71
2022/09/20 03:36:48;;;;;;;4.97;1.00;;;;;;;;;;5048889;28;20041;-71
2022/09/20 03:39:14;;;;;;;10.77;1.35;;;;;;;;;;5041909;28;20044;-71
2022/09/20 03:41:53;;;;;;;6.68;1.30;;;;;;;;;;5044589;28;20040;-71
2022/09/20 03:44:19;;;;;;;7.22;1.20;;;;;;;;;;5053052;28;20044;-71
2022/09/20 03:46:47;;;;;;;9.07;1.30;;;;;;;;;;5056783;28;20055;-71
2022/09/20 03:49:31;;;;;;;4.85;1.52;;;;;;;;;;5058310;28;20056;-71
2022/09/20 03:52:05;;;;;;;7.32;1.45;;;;;;;;;;5055451;28;20047;-71
2022/09/20 03:54:31;;;;;;;7.30;1.55;;;;;;;;;;5048153;28;20040;-71
2022/09/20 03:57:15;;;;;;;6.70;0.93;;;;;;;;;;5051309;28;20046;-71
2022/09/20 04:00:00;;;;;;;11.00;1.35;;;;;;;;;;5083983;28;20531;-71
2022/09/20 04:02:45;;;;;;;10.73;1.27;;;;;;;;;;5048232;28;20484;-71
2022/09/20 04:05:15;;;;;;;8.93;1.52;;;;;;;;;;5049100;28;20139;-71
2022/09/20 04:07:51;;;;;;;4.15;1.10;;;;;;;;;;5047512;28;20053;-71
2022/09/20 04:10:19;;;;;;;6.18;1.10;;;;;;;;;;5040415;28;21575;-71
2022/09/20 04:12:45;;;;;;;8.43;1.38;;;;;;;;;;5047625;28;20049;-71
2022/09/20 04:15:14;;;;;;;13.02;1.70;;;;;;;;;;5060470;28;20399;-71
2022/09/20 04:17:47;;;;;;;14.32;1.80;;;;;;;;;;5050548;28;20115;-71
2022/09/20 04:20:17;;;;;;;6.07;1.08;;;;;;;;;;5041850;28;20037;-71
2022/09/20 04:22:44;;;;;;;9.55;1.50;;;;;;;;;;5046474;28;20688;-71
2022/09/20 04:25:16;;;;;;;8.45;2.05;;;;;;;;;;5042629;28;20045;-71
2022/09/20 04:27:46;;;;;;;14.48;2.00;;;;;;;;;;5041548;28;20111;-71
2022/09/20 04:30:18;;;;;;;11.63;1.67;;;;;;;;;;5044207;28;20070;-71
2022/09/20 04:33:02;;;;;;;7.10;1.42;;;;;;;;;;5046463;28;20076;-69
2022/09/20 04:38:21;;;;;;;7.07;1.40;;;;;;;;;;5038514;28;20449;-71
2022/09/20 04:41:15;;;;;;;7.75;1.17;;;;;;;;;;5039158;28;20052;-71
2022/09/20 04:43:53;;;;;;;6.82;1.80;;;;;;;;;;5040997;28;20073;-71
2022/09/20 04:46:34;;;;;;;5.72;1.45;;;;;;;;;;5042154;28;20052;-71
2022/09/20 04:49:15;;;;;;;5.95;1.35;;;;;;;;;;5038812;28;20049;-71
2022/09/20 04:51:51;;;;;;;7.10;1.13;;;;;;;;;;5038104;28;20055;-71
2022/09/20 04:54:27;;;;;;;7.97;1.77;;;;;;;;;;5039971;28;20045;-71
2022/09/20 04:56:59;;;;;;;9.02;1.65;;;;;;;;;;5047293;28;20056;-71
2022/09/20 04:59:29;;;;;;;9.57;1.05;;;;;;;;;;5050742;28;20053;-70
2022/09/20 05:02:17;;;;;;;5.35;1.17;;;;;;;;;;5046890;28;20369;-70
2022/09/20 05:04:47;;;;;;;4.88;0.98;;;;;;;;;;5053006;28;20476;-71
2022/09/20 05:07:24;;;;;;;11.38;2.10;;;;;;;;;;5053932;28;20457;-70
2022/09/20 05:09:58;;;;;;;6.75;1.90;;;;;;;;;;5044414;28;20147;-71
2022/09/20 05:12:33;;;;;;;10.98;1.85;;;;;;;;;;5052824;28;20168;-71
2022/09/20 05:15:08;;;;;;;13.88;1.50;;;;;;;;;;5046360;28;20045;-72
2022/09/20 05:17:36;;;;;;;8.10;1.33;;;;;;;;;;5046121;28;20500;-72
2022/09/20 05:20:12;;;;;;;15.70;1.23;;;;;;;;;;5059246;28;20052;-69
2022/09/20 05:22:49;;;;;;;10.98;1.45;;;;;;;;;;5048819;28;20211;-69
2022/09/20 05:25:27;;;;;;;8.85;1.33;;;;;;;;;;5042077;28;20144;-69
2022/09/20 05:28:01;;;;;;;16.08;2.17;;;;;;;;;;5056801;28;20504;-68
2022/09/20 05:30:28;;;;;;;;;;;;;;;;;;5061443;28;20369;-69
2022/09/20 05:33:05;;;;;;;14.43;2.05;;;;;;;;;;5061486;28;20383;-69
2022/09/20 05:35:49;;;;;;;13.80;1.17;;;;;;;;;;5044796;28;20055;-69
2022/09/20 05:38:22;;;;;;;9.68;1.23;;;;;;;;;;5046170;28;20131;-69
2022/09/20 05:40:59;;;;;;;10.60;1.65;;;;;;;;;;5048926;28;20049;-69
2022/09/20 05:43:32;;;;;;;8.13;1.55;;;;;;;;;;5046951;28;20047;-68
2022/09/20 05:46:05;;;;;;;10.03;1.33;;;;;;;;;;5046708;28;20056;-68
2022/09/20 05:48:32;;;;;;;;;;;;;;;;;;5043746;28;20411;-68
2022/09/20 05:51:02;;;;;;;8.82;1.60;;;;;;;;;;5049153;28;19925;-68
2022/09/20 05:53:38;;;;;;;9.10;1.23;;;;;;;;;;5060198;28;20044;-68
2022/09/20 05:56:15;;;;;;;9.48;1.00;;;;;;;;;;5046854;28;20052;-68
2022/09/20 05:58:41;;;;;;;10.60;1.30;;;;;;;;;;5048646;28;20056;-69
2022/09/20 06:01:08;;;;;;;7.60;1.05;;;;;;;;;;5046880;28;20118;-68
2022/09/20 06:03:39;;;;;;;8.88;1.45;;;;;;;;;;5045378;28;20092;-68
2022/09/20 06:06:12;;;;;;;8.73;1.63;;;;;;;;;;5045836;28;20076;-69
2022/09/20 06:08:48;;;;;;;9.43;1.40;;;;;;;;;;5046265;28;20063;-69
2022/09/20 06:11:36;;;;;;;6.22;1.25;;;;;;;;;;5046176;28;20137;-68
2022/09/20 06:14:15;;;;;;;16.35;1.50;;;;;;;;;;5046055;28;20045;-69
2022/09/20 06:16:46;;;;;;;8.52;1.52;;;;;;;;;;5045559;28;20048;-69
2022/09/20 06:19:18;;;;;;;11.50;2.13;;;;;;;;;;5049236;28;20047;-69
2022/09/20 06:21:53;;;;;;;9.93;1.77;;;;;;;;;;5046293;28;20099;-68
2022/09/20 06:24:38;;;;;;;16.85;2.70;;;;;;;;;;5045189;28;20045;-69
2022/09/20 06:27:08;;;;;;;6.97;1.30;;;;;;;;;;5047990;28;20507;-68
2022/09/20 06:29:35;;;;;;;7.32;1.42;;;;;;;;;;5045248;28;20037;-68
2022/09/20 06:32:01;;;;;;;7.53;1.67;;;;;;;;;;5045225;28;20045;-68
2022/09/20 06:34:28;;;;;;;11.07;1.55;;;;;;;;;;5050209;28;20040;-69
2022/09/20 06:42:46;;;;;;;10.18;1.15;;;;;;;;;;5050856;28;20045;-69
2022/09/20 06:45:12;;;;;;;10.90;1.95;;;;;;;;;;5057044;28;20045;-68
2022/09/20 06:47:39;;;;;;;11.30;1.70;;;;;;;;;;5052037;28;20139;-69
2022/09/20 06:50:05;;;;;;;12.20;1.85;;;;;;;;;;5057768;28;20089;-68
2022/09/20 06:52:32;;;;;;;6.20;1.05;;;;;;;;;;5059960;28;20032;-68
2022/09/20 06:54:58;;;;;;;9.38;1.33;;;;;;;;;;5043173;28;20049;-69
2022/09/20 06:57:34;;;;;;;13.25;1.55;;;;;;;;;;5057872;28;20479;-69
2022/09/20 07:00:01;;;;;;;13.02;1.98;;;;;;;;;;5056978;28;20152;-69
2022/09/20 07:02:27;;;;;;;8.20;1.80;;;;;;;;;;5059645;28;20112;-69
2022/09/20 07:04:54;;;;;;;8.80;1.45;;;;;;;;;;5046491;28;20041;-72
2022/09/20 07:07:20;;;;;;;11.70;1.23;;;;;;;;;;5061209;28;20053;-71
2022/09/20 07:09:46;;;;;;;10.77;1.77;;;;;;;;;;5063515;28;20059;-72
2022/09/20 07:12:12;;;;;;;11.57;1.77;;;;;;;;;;5063484;28;20048;-72
2022/09/20 07:14:39;;;;;;;7.55;1.10;;;;;;;;;;5056394;28;20177;-72
2022/09/20 07:17:05;;;;;;;11.98;1.95;;;;;;;;;;5057554;28;20044;-72
2022/09/20 07:19:32;;;;;;;7.95;1.17;;;;;;;;;;5060197;28;20062;-72
2022/09/20 07:21:58;;;;;;;8.23;1.40;;;;;;;;;;5050969;28;20053;-71
2022/09/20 07:24:25;;;;;;;9.25;1.48;;;;;;;;;;5043090;28;20109;-72
2022/09/20 07:27:01;;;;;;;9.90;1.70;;;;;;;;;;5044062;28;20389;-72
2022/09/20 07:29:28;;;;;;;8.13;1.70;;;;;;;;;;5044286;28;20048;-71
2022/09/20 07:31:55;;;;;;;9.55;1.20;;;;;;;;;;5045454;28;20128;-71
2022/09/20 07:34:21;;;;;;;8.52;1.52;;;;;;;;;;5043180;28;20052;-72
2022/09/20 07:36:49;;;;;;;11.63;1.67;;;;;;;;;;5044224;28;20049;-71
2022/09/20 07:39:15;;;;;;;9.02;1.90;;;;;;;;;;5046912;28;20437;-72
2022/09/20 07:41:44;;;;;;;13.00;1.50;;;;;;;;;;5044380;28;20146;-71
2022/09/20 07:44:20;;;;;;;8.02;1.17;;;;;;;;;;5042226;28;20064;-71
2022/09/20 07:46:48;;;;;;;6.90;1.00;;;;;;;;;;5045504;28;20489;-70
2022/09/20 07:49:14;;;;;;;8.43;1.50;;;;;;;;;;5043351;28;20075;-72
2022/09/20 07:51:41;;;;;;;7.88;1.08;;;;;;;;;;5042583;28;20143;-72
2022/09/20 07:54:07;;;;;;;9.20;1.40;;;;;;;;;;5045173;28;20040;-72
2022/09/20 07:56:34;;;;;;;7.82;1.02;;;;;;;;;;5046551;28;20095;-72
2022/09/20 07:59:00;;;;;;;9.43;1.42;;;;;;;;;;5047859;28;20045;-71
2022/09/20 08:01:26;;;;;;;5.82;1.00;;;;;;;;;;5047255;28;20052;-72
2022/09/20 08:03:52;;;;;;;6.00;1.50;;;;;;;;;;5028709;28;20484;-72
2022/09/20 08:06:20;;;;;;;5.35;1.23;;;;;;;;;;5047364;28;20053;-71
2022/09/20 08:08:46;;;;;;;9.07;1.75;;;;;;;;;;5053506;28;20048;-71
2022/09/20 08:11:14;;;;;;;7.65;1.42;;;;;;;;;;5058976;28;20045;-71
2022/09/20 08:13:42;;;;;;;6.57;1.35;;;;;;;;;;5062495;28;20045;-71
2022/09/20 08:16:09;;;;;;;5.82;0.88;;;;;;;;;;5057489;28;20068;-71
2022/09/20 08:18:36;;;;;;;4.80;0.90;;;;;;;;;;5050117;28;20052;-72
2022/09/20 08:21:05;;;;;;;6.30;1.25;;;;;;;;;;5058860;28;20515;-72
2022/09/20 08:23:33;;;;;;;9.77;1.23;;;;;;;;;;5059591;28;20033;-72
2022/09/20 08:26:01;;;;;;;8.32;1.33;;;;;;;;;;5050491;28;20052;-71
2022/09/20 08:28:27;;;;;;;6.72;0.93;;;;;;;;;;5056339;28;20037;-71
2022/09/20 08:30:53;;;;;;;6.53;1.00;;;;;;;;;;5058454;28;20119;-72
2022/09/20 08:33:19;;;;;;;9.30;1.30;;;;;;;;;;5055232;28;20164;-72
2022/09/20 08:35:48;;;;;;;4.65;1.00;;;;;;;;;;5059774;28;20067;-72
2022/09/20 08:38:14;;;;;;;11.35;1.60;;;;;;;;;;5055302;28;20404;-71
2022/09/20 08:40:40;;;;;;;9.32;1.10;;;;;;;;;;5060583;28;20751;-72
2022/09/20 08:43:08;;;;;;;8.68;1.23;;;;;;;;;;5054606;28;20125;-72
2022/09/20 08:45:35;;;;;;;13.90;1.88;;;;;;;;;;5056789;28;20117;-71
2022/09/20 08:48:04;;;;;;;5.28;1.00;;;;;;;;;;5061289;28;20368;-72
2022/09/20 08:50:33;;;;;;;9.40;1.52;;;;;;;;;;5059934;28;20128;-72
2022/09/20 08:53:03;;;;;;;8.15;1.63;;;;;;;;;;5055893;28;20558;-72
2022/09/20 08:55:31;;;;;;;10.52;1.63;;;;;;;;;;5055702;28;20515;-70
2022/09/20 08:57:58;;;;;;;9.95;1.58;;;;;;;;;;5059603;28;20048;-71
2022/09/20 09:00:25;;;;;;;7.40;1.05;;;;;;;;;;5069455;28;20044;-72
2022/09/20 09:02:53;;;;;;;7.80;1.08;;;;;;;;;;5053301;28;20036;-72
2022/09/20 09:05:26;;;;;;;10.88;1.80;;;;;;;;;;5061467;28;20053;-71
2022/09/20 09:07:53;;;;;;;8.68;1.25;;;;;;;;;;5051943;28;20041;-72
2022/09/20 09:10:19;;;;;;;9.38;1.33;;;;;;;;;;5053987;28;20049;-72
2022/09/20 09:12:45;;;;;;;10.95;1.77;;;;;;;;;;5045670;28;20091;-72
2022/09/20 09:15:34;;;;;;;9.15;1.23;;;;;;;;;;5032641;28;20059;-71
2022/09/20 09:18:01;;;;;;;6.63;1.02;;;;;;;;;;5044586;28;20037;-71
2022/09/20 09:20:28;;;;;;;8.10;1.13;;;;;;;;;;5028503;28;20051;-72
2022/09/20 09:22:59;;;;;;;7.50;1.83;;;;;;;;;;5030181;28;20891;-72
2022/09/20 09:25:36;;;;;;;6.53;1.20;;;;;;;;;;5056433;28;20048;-72
2022/09/20 09:28:08;;;;;;;7.22;1.27;;;;;;;;;;5059895;28;20044;-78
2022/09/20 09:30:37;;;;;;;6.95;1.20;;;;;;;;;;5054930;28;20077;-77
2022/09/20 09:33:15;;;;;;;9.07;1.40;;;;;;;;;;5044439;28;20044;-72
2022/09/20 09:35:42;;;;;;;6.82;1.30;;;;;;;;;;5052957;28;20120;-72
2022/09/20 09:38:16;;;;;;;7.28;1.45;;;;;;;;;;5060993;28;20040;-72
2022/09/20 09:40:49;;;;;;;5.57;1.30;;;;;;;;;;5053964;28;20044;-72
2022/09/20 09:43:25;;;;;;;8.15;1.33;;;;;;;;;;5058468;28;20185;-72
2022/09/20 09:45:52;;;;;;;6.72;1.17;;;;;;;;;;5046797;28;20049;-72
2022/09/20 09:48:20;;;;;;;8.93;1.73;;;;;;;;;;5051670;28;20347;-72
2022/09/20 09:50:47;;;;;;;7.00;0.93;;;;;;;;;;5056617;28;20508;-72
2022/09/20 09:53:14;;;;;;;8.02;1.20;;;;;;;;;;5050620;28;20391;-72
2022/09/20 09:55:51;;;;;;;6.93;0.80;;;;;;;;;;5054425;28;20166;-72
2022/09/20 09:58:30;;;;;;;7.78;1.25;;;;;;;;;;5058225;28;20049;-72
2022/09/20 10:00:58;;;;;;;5.65;1.23;;;;;;;;;;5052813;28;20052;-72
2022/09/20 10:03:30;;;;;;;10.45;1.08;;;;;;;;;;5046832;28;20123;-72
2022/09/20 10:06:10;;;;;;;6.90;1.02;;;;;;;;;;5052818;28;20045;-72
2022/09/20 10:08:43;;;;;;;5.80;1.23;;;;;;;;;;5048237;28;20132;-72
2022/09/20 10:11:11;;;;;;;8.57;0.90;;;;;;;;;;5061840;28;20048;-72
2022/09/20 10:13:37;;;;;;;10.02;1.17;;;;;;;;;;5060098;28;20318;-72
2022/09/20 10:16:21;;;;;;;8.07;1.50;;;;;;;;;;5050798;28;20124;-72
2022/09/20 10:18:47;;;;;;;;;;;;;;;;;;5055978;28;20423;-72
2022/09/20 10:21:23;;;;;;;8.85;1.27;;;;;;;;;;5052227;28;19932;-72
2022/09/20 10:24:03;;;;;;;8.95;1.00;;;;;;;;;;5060189;28;20442;-71
2022/09/20 10:27:02;;;;;;;12.73;1.55;;;;;;;;;;5060505;28;20040;-69
2022/09/20 10:29:39;;;;;;;6.78;1.30;;;;;;;;;;5057215;28;20171;-72
2022/09/20 10:32:26;;;;;;;7.95;1.40;;;;;;;;;;5052774;28;20070;-71
2022/09/20 10:34:59;;;;;;;7.55;1.15;;;;;;;;;;5043498;28;20056;-72
2022/09/20 10:37:26;;;;;;;9.73;2.05;;;;;;;;;;5043770;28;20083;-71
2022/09/20 10:40:07;;;;;;;8.27;1.65;;;;;;;;;;5050756;28;20049;-71
2022/09/20 10:45:27;;;;;;;8.57;1.35;;;;;;;;;;5060962;28;20045;-71
2022/09/20 10:47:54;;;;;;;7.82;1.55;;;;;;;;;;5053514;28;20086;-71
2022/09/20 10:50:41;;;;;;;10.85;1.65;;;;;;;;;;5054639;28;20045;-71
2022/09/20 10:53:26;;;;;;;8.23;1.33;;;;;;;;;;5047125;28;20062;-72
2022/09/20 10:56:13;;;;;;;8.52;1.45;;;;;;;;;;5051205;28;20085;-72
2022/09/20 10:58:46;;;;;;;9.63;1.50;;;;;;;;;;5042050;28;20075;-71
2022/09/20 11:01:28;;;;;;;8.15;1.80;;;;;;;;;;5045677;28;20116;-72
2022/09/20 11:04:06;;;;;;;7.40;1.40;;;;;;;;;;5045406;28;20064;-72
2022/09/20 11:06:38;;;;;;;8.52;1.90;;;;;;;;;;5043052;28;20041;-72
2022/09/20 11:09:08;;;;;;;8.07;1.00;;;;;;;;;;5048440;28;20047;-72
2022/09/20 11:11:37;;;;;;;6.97;1.20;;;;;;;;;;5045171;28;20064;-72
2022/09/20 11:14:07;;;;;;;5.50;0.98;;;;;;;;;;5044508;28;20044;-71
2022/09/20 11:16:42;;;;;;;6.18;1.15;;;;;;;;;;5042672;28;20083;-71
2022/09/20 11:19:23;;;;;;;4.43;0.90;;;;;;;;;;5042945;28;20048;-71
2022/09/20 11:21:53;;;;;;;5.35;1.13;;;;;;;;;;5060128;28;20053;-72
2022/09/20 11:24:24;;;;;;;6.40;1.35;;;;;;;;;;5045543;28;20052;-72
2022/09/20 11:26:51;;;;;;;5.57;1.10;;;;;;;;;;5044618;28;20535;-72
2022/09/20 11:29:25;;;;;;;6.03;0.90;;;;;;;;;;5043001;28;20112;-71
2022/09/20 11:31:53;;;;;;;5.72;1.25;;;;;;;;;;5045188;28;20171;-71
2022/09/20 11:34:24;;;;;;;4.40;0.70;;;;;;;;;;5047078;28;20519;-71
2022/09/20 11:36:57;;;;;;;9.52;1.33;;;;;;;;;;5057219;28;20052;-71
2022/09/20 11:39:38;;;;;;;6.13;0.75;;;;;;;;;;5049859;28;20365;-72
2022/09/20 11:42:04;;;;;;;5.93;0.80;;;;;;;;;;5050094;28;20037;-72
2022/09/20 11:44:31;;;;;;;4.47;0.88;;;;;;;;;;5049404;28;20049;-70
2022/09/20 11:47:01;;;;;;;6.00;0.77;;;;;;;;;;5045929;28;20036;-69
2022/09/20 11:49:30;;;;;;;6.13;1.08;;;;;;;;;;5046737;28;20049;-69
2022/09/20 11:51:58;;;;;;;3.97;1.10;;;;;;;;;;5048317;28;20445;-70
2022/09/20 11:54:27;;;;;;;5.35;1.23;;;;;;;;;;5046613;28;20089;-69
2022/09/20 11:56:55;;;;;;;6.15;1.10;;;;;;;;;;5053230;28;20061;-69
2022/09/20 11:59:42;;;;;;;5.63;1.23;;;;;;;;;;5052912;28;20049;-69
2022/09/20 12:02:21;;;;;;;9.82;1.80;;;;;;;;;;5054276;28;20070;-69
2022/09/20 12:04:52;;;;;;;6.30;0.88;;;;;;;;;;5060531;28;20102;-69
2022/09/20 12:07:18;;;;;;;4.78;0.93;;;;;;;;;;5057737;28;20449;-69
2022/09/20 12:09:45;;;;;;;7.18;1.13;;;;;;;;;;5064210;28;20076;-69
2022/09/20 12:12:30;;;;;;;4.95;1.20;;;;;;;;;;5053314;28;20447;-69
2022/09/20 12:14:57;;;;;;;5.07;1.00;;;;;;;;;;5060401;28;20078;-69
2022/09/20 12:17:42;;;;;;;7.85;1.35;;;;;;;;;;5053616;28;20053;-69
2022/09/20 12:20:27;;;;;;;7.53;1.23;;;;;;;;;;5048378;28;20404;-69
2022/09/20 12:23:13;;;;;;;5.20;0.80;;;;;;;;;;5055273;28;20041;-69
2022/09/20 12:25:40;;;;;;;3.90;0.88;;;;;;;;;;5060043;28;20595;-69
2022/09/20 12:28:13;;;;;;;5.00;1.00;;;;;;;;;;5056579;28;20048;-69
2022/09/20 12:30:39;;;;;;;6.15;0.93;;;;;;;;;;5060910;28;20123;-70
2022/09/20 12:33:18;;;;;;;3.20;0.77;;;;;;;;;;5056896;28;20047;-70
2022/09/20 12:35:52;;;;;;;7.13;1.10;;;;;;;;;;5058047;28;20044;-70
2022/09/20 12:38:20;;;;;;;7.32;0.95;;;;;;;;;;5053623;28;20053;-70
2022/09/20 12:41:04;;;;;;;9.20;1.30;;;;;;;;;;5054086;28;20464;-70
2022/09/20 12:43:31;;;;;;;7.18;1.10;;;;;;;;;;5057982;28;20047;-70
2022/09/20 12:45:58;;;;;;;4.97;1.23;;;;;;;;;;5048396;28;20045;-69
2022/09/20 12:48:24;;;;;;;5.88;1.38;;;;;;;;;;5039477;28;20049;-71
2022/09/20 12:54:02;;;;;;;3.33;0.88;;;;;;;;;;5049739;28;20045;-71
2022/09/20 12:56:28;;;;;;;5.28;1.15;;;;;;;;;;5052316;28;20994;-70
2022/09/20 12:58:55;;;;;;;3.30;0.80;;;;;;;;;;5038351;28;20048;-70
2022/09/20 13:01:21;;;;;;;5.47;0.85;;;;;;;;;;5048116;28;20053;-70
2022/09/20 13:03:49;;;;;;;3.55;0.73;;;;;;;;;;5044963;28;20120;-70
2022/09/20 13:06:16;;;;;;;5.82;1.27;;;;;;;;;;5037929;28;20056;-70
2022/09/20 13:09:03;;;;;;;4.88;1.25;;;;;;;;;;5043106;28;20037;-70
2022/09/20 13:11:39;;;;;;;6.30;0.98;;;;;;;;;;5037239;28;20111;-70
2022/09/20 13:14:05;;;;;;;9.93;1.50;;;;;;;;;;5043250;28;20045;-70
2022/09/20 13:16:36;;;;;;;10.32;1.48;;;;;;;;;;5048571;28;20067;-70
2022/09/20 13:19:04;;;;;;;10.15;1.50;;;;;;;;;;5046254;28;20447;-70
2022/09/20 13:21:33;;;;;;;5.60;1.30;;;;;;;;;;5048882;28;20124;-70
2022/09/20 13:24:01;;;;;;;8.15;1.42;;;;;;;;;;5054296;28;20048;-70
2022/09/20 13:26:32;;;;;;;8.10;1.10;;;;;;;;;;5044127;28;20127;-70
2022/09/20 13:28:58;;;;;;;6.15;1.38;;;;;;;;;;5047399;28;20049;-70
2022/09/20 13:31:26;;;;;;;5.72;1.33;;;;;;;;;;5049940;28;20040;-70
2022/09/20 13:33:52;;;;;;;6.70;1.13;;;;;;;;;;5048195;28;20406;-70
2022/09/20 13:36:24;;;;;;;7.78;0.90;;;;;;;;;;5045056;28;20087;-70
2022/09/20 13:38:50;;;;;;;5.65;1.75;;;;;;;;;;5045966;28;20041;-70
2022/09/20 13:41:16;;;;;;;7.38;1.10;;;;;;;;;;5048368;28;20504;-70
2022/09/20 13:43:44;;;;;;;6.63;1.27;;;;;;;;;;5045579;28;20041;-70
2022/09/20 13:46:12;;;;;;;7.20;1.17;;;;;;;;;;5040165;28;20044;-70
2022/09/20 13:48:38;;;;;;;7.75;1.17;;;;;;;;;;5052766;28;20041;-70
2022/09/20 13:51:16;;;;;;;8.20;2.10;;;;;;;;;;5044185;28;20049;-70
2022/09/20 13:53:43;;;;;;;7.82;1.08;;;;;;;;;;5042438;28;20045;-67
2022/09/20 13:56:16;;;;;;;5.82;1.83;;;;;;;;;;5042588;28;20049;-69
2022/09/20 13:58:42;;;;;;;9.10;1.40;;;;;;;;;;5059411;28;20055;-69
2022/09/20 14:01:21;;;;;;;6.72;1.00;;;;;;;;;;5041651;28;20232;-69
2022/09/20 14:03:47;;;;;;;5.60;1.42;;;;;;;;;;5038623;28;20118;-70
2022/09/20 14:06:14;;;;;;;7.80;1.15;;;;;;;;;;5035243;28;20477;-68
2022/09/20 14:08:42;;;;;;;8.15;1.52;;;;;;;;;;5079978;28;21338;-69
2022/09/20 14:11:16;;;;;;;7.93;1.20;;;;;;;;;;5051634;28;20085;-69
2022/09/20 14:13:44;;;;;;;8.13;1.48;;;;;;;;;;5032876;28;20198;-69
2022/09/20 14:16:11;;;;;;;7.22;1.35;;;;;;;;;;5048928;28;20037;-69
2022/09/20 14:18:39;;;;;;;4.45;0.90;;;;;;;;;;5056479;28;20071;-69
2022/09/20 14:21:09;;;;;;;6.13;1.02;;;;;;;;;;5054994;28;20508;-68
2022/09/20 14:23:49;;;;;;;6.90;1.10;;;;;;;;;;5054837;28;20071;-69
2022/09/20 14:26:16;;;;;;;6.15;1.00;;;;;;;;;;5054984;28;20502;-68
2022/09/20 14:28:43;;;;;;;6.97;1.65;;;;;;;;;;5054801;28;20040;-69
2022/09/20 14:31:21;;;;;;;6.93;1.35;;;;;;;;;;5042836;28;20044;-68
2022/09/20 14:33:50;;;;;;;6.78;1.60;;;;;;;;;;5043498;28;20116;-69
2022/09/20 14:36:19;;;;;;;9.63;1.52;;;;;;;;;;5043553;28;20071;-68
2022/09/20 14:38:47;;;;;;;6.60;1.10;;;;;;;;;;5041376;28;20049;-68
2022/09/20 14:41:13;;;;;;;9.82;1.55;;;;;;;;;;5036517;28;20186;-69
2022/09/20 14:43:41;;;;;;;7.22;1.55;;;;;;;;;;5047945;28;20072;-69
2022/09/20 14:46:12;;;;;;;7.82;1.65;;;;;;;;;;5043877;28;20080;-69
2022/09/20 14:48:40;;;;;;;6.82;1.20;;;;;;;;;;5042732;28;20090;-69
2022/09/20 14:51:08;;;;;;;7.97;1.60;;;;;;;;;;5039852;28;20145;-69
2022/09/20 14:53:36;;;;;;;7.53;1.58;;;;;;;;;;5039467;28;20045;-68
2022/09/20 14:56:04;;;;;;;7.28;1.40;;;;;;;;;;5067501;28;20401;-68
2022/09/20 14:58:30;;;;;;;12.98;2.30;;;;;;;;;;5040608;28;20098;-68
2022/09/20 15:01:04;;;;;;;7.80;1.30;;;;;;;;;;5038953;28;20068;-68
2022/09/20 15:03:33;;;;;;;8.15;1.63;;;;;;;;;;5036903;28;20043;-69
2022/09/20 15:05:59;;;;;;;9.68;1.52;;;;;;;;;;5038626;28;20095;-69
2022/09/20 15:08:26;;;;;;;7.63;1.63;;;;;;;;;;5042440;28;20190;-69
2022/09/20 15:10:52;;;;;;;8.35;1.30;;;;;;;;;;5048671;28;20044;-69
2022/09/20 15:13:18;;;;;;;6.00;0.93;;;;;;;;;;5044418;28;20077;-70
2022/09/20 15:15:46;;;;;;;5.18;1.45;;;;;;;;;;5035548;28;20038;-69
2022/09/20 15:18:18;;;;;;;10.02;1.25;;;;;;;;;;5055462;28;20108;-69
2022/09/20 15:20:45;;;;;;;8.10;1.48;;;;;;;;;;5048526;28;20129;-69